Time;durP1;ratioP1;P1;durP2;ratioP2;P2;SDS_P1;SDS_P2;PMS_P1;PMS_P2;Temp;Humidity;BMP_temperature;BMP_pressure;BME280_temperature;BME280_humidity;BME280_pressure;Samples;Min_cycle;Max_cycle;Signal;HPM_P1;HPM_P2
2021/04/01 00:02:28;;;;;;;6.07;5.30;;;12.90;74.60;;;;;;5113855;28;20180;-51
2021/04/01 00:04:56;;;;;;;5.45;4.55;;;12.70;74.80;;;;;;5109502;28;20844;-51
2021/04/01 00:07:22;;;;;;;5.78;5.18;;;12.70;74.80;;;;;;5091437;28;20207;-52
2021/04/01 00:09:48;;;;;;;6.65;5.00;;;12.70;75.30;;;;;;5091066;28;20215;-52
2021/04/01 00:12:13;;;;;;;6.30;4.95;;;12.40;76.30;;;;;;5096744;28;20171;-51
2021/04/01 00:14:39;;;;;;;5.57;4.73;;;12.50;78.10;;;;;;5093060;28;20206;-52
2021/04/01 00:17:06;;;;;;;6.20;4.80;;;12.30;78.50;;;;;;5090248;28;20274;-51
2021/04/01 00:19:32;;;;;;;6.10;5.50;;;12.60;78.00;;;;;;5094948;28;20451;-51
2021/04/01 00:21:58;;;;;;;7.90;5.20;;;12.30;77.90;;;;;;5111636;28;20187;-52
2021/04/01 00:24:23;;;;;;;6.23;5.17;;;12.30;77.30;;;;;;5111139;28;20178;-52
2021/04/01 00:26:49;;;;;;;7.40;5.07;;;12.50;77.50;;;;;;5111624;28;20201;-51
2021/04/01 00:29:14;;;;;;;8.97;6.10;;;12.60;77.80;;;;;;5111327;28;20249;-52
2021/04/01 00:31:40;;;;;;;7.50;5.40;;;12.40;77.70;;;;;;5111563;28;20672;-51
2021/04/01 00:34:09;;;;;;;6.30;4.90;;;12.50;78.10;;;;;;5111989;27;20185;-51
2021/04/01 00:36:34;;;;;;;6.55;5.20;;;12.30;77.60;;;;;;5113510;27;20182;-52
2021/04/01 00:39:00;;;;;;;9.47;5.87;;;12.60;77.80;;;;;;5114509;27;20205;-52
2021/04/01 00:41:25;;;;;;;9.70;5.50;;;12.50;77.80;;;;;;5114907;27;20190;-51
2021/04/01 00:43:51;;;;;;;7.43;5.17;;;12.40;77.60;;;;;;5111668;28;20245;-51
2021/04/01 00:46:17;;;;;;;6.00;4.93;;;12.40;77.80;;;;;;5107711;27;20278;-51
2021/04/01 00:48:43;;;;;;;8.90;5.00;;;12.50;77.80;;;;;;5114822;27;20219;-52
2021/04/01 00:51:09;;;;;;;9.02;5.22;;;12.30;77.50;;;;;;5111712;28;20183;-51
2021/04/01 00:53:35;;;;;;;6.43;5.07;;;12.40;77.80;;;;;;5112498;27;20183;-51
2021/04/01 00:56:01;;;;;;;5.37;4.80;;;12.10;78.00;;;;;;5120854;27;20552;-51
2021/04/01 00:58:28;;;;;;;8.07;5.50;;;12.30;78.00;;;;;;5096577;27;20206;-52
2021/04/01 01:01:14;;;;;;;7.60;5.85;;;12.10;78.10;;;;;;5113591;27;20599;-52
2021/04/01 01:03:40;;;;;;;6.30;5.05;;;12.20;78.70;;;;;;5112854;27;20177;-52
2021/04/01 01:06:06;;;;;;;5.80;4.93;;;12.10;78.70;;;;;;5114061;27;20193;-52
2021/04/01 01:08:32;;;;;;;5.75;5.10;;;12.30;79.20;;;;;;5094089;28;20214;-51
2021/04/01 01:10:57;;;;;;;5.40;4.43;;;12.20;79.80;;;;;;5095147;27;20622;-52
2021/04/01 01:13:23;;;;;;;6.70;4.77;;;12.30;78.80;;;;;;5107204;28;20579;-52
2021/04/01 01:15:49;;;;;;;7.50;5.50;;;12.10;78.80;;;;;;5093192;28;20198;-51
2021/04/01 01:18:14;;;;;;;6.07;4.50;;;11.90;78.70;;;;;;5093515;28;20199;-52
2021/04/01 01:20:40;;;;;;;5.80;5.20;;;12.00;79.00;;;;;;5093426;28;20241;-52
2021/04/01 01:23:07;;;;;;;6.03;5.43;;;12.10;79.20;;;;;;5093894;28;20186;-52
2021/04/01 01:25:32;;;;;;;6.03;5.38;;;12.20;80.00;;;;;;5093786;28;20284;-53
2021/04/01 01:27:59;;;;;;;10.20;5.93;;;11.80;80.30;;;;;;5100858;27;20289;-52
2021/04/01 01:30:25;;;;;;;7.15;4.97;;;11.90;80.50;;;;;;5114099;27;20186;-52
2021/04/01 01:33:02;;;;;;;6.77;5.23;;;11.70;80.40;;;;;;5114047;27;20190;-52
2021/04/01 01:35:31;;;;;;;6.50;5.25;;;11.90;80.70;;;;;;5112314;27;20181;-52
2021/04/01 01:37:59;;;;;;;8.50;5.40;;;11.90;81.00;;;;;;5092613;28;20201;-52
2021/04/01 01:40:27;;;;;;;6.15;4.93;;;11.80;80.80;;;;;;5093267;28;20191;-52
2021/04/01 01:42:58;;;;;;;5.60;5.10;;;11.80;80.90;;;;;;5093440;28;20681;-52
2021/04/01 01:45:25;;;;;;;8.43;5.30;;;11.30;80.40;;;;;;5105461;27;20192;-52
2021/04/01 01:47:51;;;;;;;6.65;5.07;;;11.90;81.30;;;;;;5113792;27;20570;-52
2021/04/01 01:50:20;;;;;;;7.63;5.47;;;11.60;81.60;;;;;;5098201;28;20286;-52
2021/04/01 01:52:46;;;;;;;6.35;4.97;;;11.60;81.80;;;;;;5105210;27;20272;-52
2021/04/01 01:55:13;;;;;;;8.50;5.47;;;11.70;82.10;;;;;;5113176;27;20276;-52
2021/04/01 01:57:40;;;;;;;7.90;5.68;;;11.80;82.70;;;;;;5112678;27;20646;-51
2021/04/01 02:00:15;;;;;;;8.55;5.53;;;11.50;83.00;;;;;;5100903;28;20700;-52
2021/04/01 02:02:50;;;;;;;7.90;5.97;;;11.40;83.50;;;;;;5110657;27;20189;-52
2021/04/01 02:05:15;;;;;;;7.15;5.80;;;11.50;83.30;;;;;;5113839;27;20184;-52
2021/04/01 02:07:41;;;;;;;8.00;4.93;;;11.70;83.80;;;;;;5112528;27;20226;-52
2021/04/01 02:10:07;;;;;;;6.10;5.10;;;11.70;83.60;;;;;;5093200;28;20679;-52
2021/04/01 02:12:33;;;;;;;6.32;5.35;;;11.80;83.30;;;;;;5100014;27;20171;-52
2021/04/01 02:14:58;;;;;;;6.47;5.50;;;11.80;83.30;;;;;;5092573;28;20201;-52
2021/04/01 02:17:25;;;;;;;6.37;4.70;;;11.40;83.60;;;;;;5097603;27;20182;-51
2021/04/01 02:19:58;;;;;;;5.60;4.88;;;11.40;83.60;;;;;;5110232;27;20229;-51
2021/04/01 02:22:23;;;;;;;9.45;6.05;;;11.40;83.40;;;;;;5113137;27;20185;-51
2021/04/01 02:24:49;;;;;;;6.83;4.63;;;11.60;84.10;;;;;;5112853;27;20201;-51
2021/04/01 02:27:16;;;;;;;8.70;5.77;;;11.80;84.00;;;;;;5113258;27;20186;-52
2021/04/01 02:29:41;;;;;;;8.20;6.90;;;11.80;83.60;;;;;;5112861;27;20219;-51
2021/04/01 02:32:07;;;;;;;8.33;5.17;;;11.80;83.70;;;;;;5112819;27;20183;-52
2021/04/01 02:34:33;;;;;;;6.45;5.60;;;11.90;83.20;;;;;;5101628;27;20227;-51
2021/04/01 02:36:59;;;;;;;8.53;5.77;;;12.00;82.80;;;;;;5104801;28;20183;-52
2021/04/01 02:39:24;;;;;;;8.70;5.77;;;11.90;82.50;;;;;;5092211;28;20736;-52
2021/04/01 02:41:50;;;;;;;10.53;5.43;;;12.00;82.50;;;;;;5092669;28;20820;-52
2021/04/01 02:44:15;;;;;;;7.17;5.60;;;11.70;82.40;;;;;;5092217;28;20200;-52
2021/04/01 02:46:41;;;;;;;8.53;5.50;;;11.50;82.50;;;;;;5098693;27;20194;-51
2021/04/01 02:49:07;;;;;;;7.17;5.30;;;11.90;83.40;;;;;;5112765;27;20234;-52
2021/04/01 02:51:32;;;;;;;8.13;5.13;;;11.50;83.30;;;;;;5103161;27;20208;-52
2021/04/01 02:53:58;;;;;;;8.00;6.00;;;11.90;83.70;;;;;;5108279;27;20205;-52
2021/04/01 02:56:23;;;;;;;7.50;5.83;;;11.70;83.10;;;;;;5092793;28;20202;-52
2021/04/01 02:58:49;;;;;;;7.97;5.27;;;11.70;82.80;;;;;;5096379;27;20203;-52
2021/04/01 03:01:15;;;;;;;7.70;6.00;;;11.60;83.10;;;;;;5112311;27;20190;-52
2021/04/01 03:03:47;;;;;;;6.43;5.47;;;11.60;82.90;;;;;;5111518;27;20193;-51
2021/04/01 03:06:13;;;;;;;7.10;5.80;;;11.70;83.40;;;;;;5112215;27;20269;-52
2021/04/01 03:08:38;;;;;;;7.10;5.57;;;11.60;83.70;;;;;;5111728;27;20210;-52
2021/04/01 03:11:04;;;;;;;9.70;5.80;;;11.80;83.70;;;;;;5098618;27;20405;-52
2021/04/01 03:13:30;;;;;;;6.53;5.30;;;11.60;83.20;;;;;;5099354;28;20661;-52
2021/04/01 03:15:55;;;;;;;10.10;5.30;;;11.80;83.70;;;;;;5109434;28;20433;-52
2021/04/01 03:18:21;;;;;;;8.73;6.20;;;11.60;83.70;;;;;;5099768;28;20589;-52
2021/04/01 03:20:48;;;;;;;10.07;6.82;;;11.60;84.50;;;;;;5110087;28;20279;-52
2021/04/01 03:23:14;;;;;;;7.85;5.68;;;11.60;85.90;;;;;;5091644;28;20194;-52
2021/04/01 03:25:39;;;;;;;8.65;5.70;;;11.40;85.20;;;;;;5092125;27;20201;-52
2021/04/01 03:28:06;;;;;;;7.30;5.50;;;11.70;85.20;;;;;;5112057;27;20235;-52
2021/04/01 03:30:31;;;;;;;7.50;5.53;;;11.50;84.50;;;;;;5130544;27;20532;-52
2021/04/01 03:32:57;;;;;;;7.83;6.93;;;11.60;84.90;;;;;;5111653;28;20272;-51
2021/04/01 03:35:23;;;;;;;7.13;5.20;;;11.30;85.40;;;;;;5111365;28;20275;-51
2021/04/01 03:37:56;;;;;;;7.67;5.80;;;11.40;85.60;;;;;;5110856;28;20954;-51
2021/04/01 03:40:23;;;;;;;11.10;6.78;;;11.50;86.00;;;;;;5111545;28;20525;-52
2021/04/01 03:42:49;;;;;;;10.32;5.75;;;11.60;86.40;;;;;;5110313;28;20177;-52
2021/04/01 03:45:15;;;;;;;9.33;6.53;;;11.40;86.00;;;;;;5102280;28;20250;-51
2021/04/01 03:47:43;;;;;;;6.82;6.10;;;11.60;85.80;;;;;;5111757;28;20191;-52
2021/04/01 03:50:11;;;;;;;9.15;6.05;;;11.50;84.90;;;;;;5111916;28;20259;-52
2021/04/01 03:52:38;;;;;;;11.13;6.10;;;11.60;84.80;;;;;;5111687;28;20250;-52
2021/04/01 03:57:55;;;;;;;7.97;6.15;;;11.60;84.60;;;;;;5129898;28;20250;-52
2021/04/01 04:00:25;;;;;;;7.80;5.00;;;11.80;84.60;;;;;;5094265;28;20610;-52
2021/04/01 04:16:10;;;;;;;6.43;5.53;;;11.50;84.10;;;;;;5131710;27;20254;-52
2021/04/01 04:18:35;;;;;;;7.10;5.63;;;11.70;84.70;;;;;;5124745;27;20667;-52
2021/04/01 04:21:01;;;;;;;8.20;5.70;;;11.70;84.90;;;;;;5115564;27;20500;-51
2021/04/01 04:23:27;;;;;;;7.20;5.07;;;11.50;85.60;;;;;;5115223;27;20616;-52
2021/04/01 04:25:55;;;;;;;9.47;6.73;;;11.50;85.70;;;;;;5115501;27;20235;-51
2021/04/01 04:28:42;;;;;;;8.73;7.03;;;11.50;86.50;;;;;;5115187;27;21083;-51
2021/04/01 04:31:07;;;;;;;9.15;6.50;;;11.40;86.60;;;;;;5133286;27;20201;-51
2021/04/01 04:33:33;;;;;;;11.13;6.37;;;11.40;86.90;;;;;;5103208;28;20229;-52
2021/04/01 04:35:59;;;;;;;9.50;6.27;;;11.30;86.80;;;;;;5115074;27;20206;-51
2021/04/01 04:38:26;;;;;;;9.10;5.93;;;11.20;86.80;;;;;;5114050;27;20483;-51
2021/04/01 04:40:56;;;;;;;9.93;7.10;;;11.10;87.10;;;;;;5114042;27;20202;-52
2021/04/01 04:43:32;;;;;;;11.55;6.25;;;11.10;86.80;;;;;;5114454;27;20193;-52
2021/04/01 04:45:58;;;;;;;8.73;6.22;;;11.40;87.40;;;;;;5113173;27;20240;-52
2021/04/01 04:48:25;;;;;;;6.40;5.75;;;11.30;86.80;;;;;;5100719;28;20211;-51
2021/04/01 04:50:51;;;;;;;6.00;5.38;;;11.30;87.00;;;;;;5112653;27;20185;-52
2021/04/01 04:53:17;;;;;;;9.45;6.75;;;11.20;87.20;;;;;;5095747;27;20183;-52
2021/04/01 05:09:05;;;;;;;9.43;6.50;;;11.00;88.50;;;;;;5122512;27;20611;-53
2021/04/01 05:11:34;;;;;;;6.90;6.22;;;10.90;89.10;;;;;;5114211;27;20182;-52
2021/04/01 05:14:00;;;;;;;12.15;7.25;;;11.00;90.20;;;;;;5105051;27;20182;-52
2021/04/01 05:16:26;;;;;;;14.10;7.53;;;10.80;90.40;;;;;;5110504;27;20582;-52
2021/04/01 05:18:52;;;;;;;9.20;6.80;;;10.60;90.50;;;;;;5103152;28;20212;-52
2021/04/01 05:21:20;;;;;;;8.52;6.30;;;10.80;90.60;;;;;;5109137;27;20619;-52
2021/04/01 05:23:50;;;;;;;10.18;7.00;;;10.70;90.70;;;;;;5113273;27;20182;-52
2021/04/01 05:28:53;;;;;;;10.48;6.60;;;11.00;90.70;;;;;;5125781;27;20267;-52
2021/04/01 05:31:21;;;;;;;7.72;6.25;;;10.90;90.50;;;;;;5112737;27;20663;-52
2021/04/01 05:33:48;;;;;;;7.90;6.05;;;11.10;90.30;;;;;;5101087;28;20247;-52
2021/04/01 05:36:25;;;;;;;10.02;5.95;;;10.90;90.00;;;;;;5100242;27;20196;-51
2021/04/01 05:38:52;;;;;;;9.55;8.00;;;11.10;89.70;;;;;;5099151;27;20208;-53
2021/04/01 05:41:20;;;;;;;15.90;6.88;;;11.10;89.20;;;;;;5098893;27;20182;-53
2021/04/01 05:43:52;;;;;;;11.98;6.88;;;10.80;88.70;;;;;;5098952;27;20190;-53
2021/04/01 05:46:23;;;;;;;10.10;6.70;;;11.40;88.70;;;;;;5106822;27;20201;-53
2021/04/01 06:00:08;;;;;;;13.20;6.20;;;11.50;88.60;;;;;;5118500;27;20670;-52
2021/04/01 06:02:28;;;;;;;9.98;6.68;;;11.40;88.00;;;;;;5116270;27;20280;-51
2021/04/01 06:05:07;;;;;;;15.82;7.00;;;12.00;88.20;;;;;;5105723;27;20182;-50
2021/04/01 06:07:40;;;;;;;11.32;7.18;;;11.70;88.00;;;;;;5104329;27;20183;-52
2021/04/01 06:10:08;;;;;;;12.25;8.38;;;11.70;87.70;;;;;;5104049;27;20711;-52
2021/04/01 06:12:34;;;;;;;8.35;7.03;;;12.00;88.30;;;;;;5100414;27;20190;-53
2021/04/01 06:15:02;;;;;;;9.70;7.80;;;11.90;87.80;;;;;;5103331;27;20274;-52
2021/04/01 06:17:31;;;;;;;9.82;6.47;;;12.10;86.80;;;;;;5099658;27;20454;-52
2021/04/01 06:20:04;;;;;;;11.20;8.15;;;12.00;86.10;;;;;;5126981;27;20275;-52
2021/04/01 06:22:30;;;;;;;12.07;6.50;;;11.90;86.70;;;;;;5103909;27;20175;-54
2021/04/01 06:24:57;;;;;;;10.20;6.30;;;12.40;86.80;;;;;;5126351;27;20187;-55
2021/04/01 06:27:29;;;;;;;9.18;7.13;;;12.80;85.80;;;;;;5110566;27;20270;-55
2021/04/01 06:32:51;;;;;;;9.00;6.40;;;12.90;85.10;;;;;;5123748;27;20746;-55
2021/04/01 06:35:28;;;;;;;10.38;7.85;;;12.90;84.80;;;;;;5125794;27;20213;-55
2021/04/01 06:40:38;;;;;;;8.95;6.88;;;13.40;83.80;;;;;;5125805;27;20527;-55
2021/04/01 06:43:16;;;;;;;13.02;7.90;;;14.10;82.00;;;;;;5100909;27;20274;-55
2021/04/01 06:45:51;;;;;;;10.45;6.43;;;14.90;79.10;;;;;;5110096;27;20182;-55
2021/04/01 06:48:22;;;;;;;10.55;7.40;;;15.20;76.90;;;;;;5126506;27;20221;-55
2021/04/01 06:50:50;;;;;;;9.65;8.20;;;15.40;74.80;;;;;;5101114;27;20179;-55
2021/04/01 06:53:34;;;;;;;7.70;6.90;;;15.70;73.40;;;;;;5095441;28;20176;-55
2021/04/01 06:59:12;;;;;;;10.13;7.13;;;17.90;67.70;;;;;;5079821;27;20214;-55
2021/04/01 07:01:47;;;;;;;10.30;6.93;;;18.80;62.70;;;;;;5102371;28;20630;-56
2021/04/01 07:04:14;;;;;;;8.65;7.45;;;19.30;60.20;;;;;;5097678;27;20167;-56
2021/04/01 07:06:42;;;;;;;11.43;7.90;;;20.10;59.00;;;;;;5101369;27;20256;-55
2021/04/01 07:12:14;;;;;;;21.13;8.33;;;22.20;55.40;;;;;;5126779;27;20976;-55
2021/04/01 07:14:41;;;;;;;13.27;7.90;;;22.80;53.40;;;;;;5102146;27;20543;-56
2021/04/01 07:17:25;;;;;;;12.37;7.83;;;23.40;51.80;;;;;;5107273;27;20489;-56
2021/04/01 07:47:22;;;;;;;13.43;9.30;;;28.50;38.80;;;;;;5117920;28;20478;-55
2021/04/01 07:49:50;;;;;;;19.90;9.13;;;28.50;39.00;;;;;;5117276;27;21032;-54
2021/04/01 07:52:27;;;;;;;15.60;9.43;;;28.40;39.40;;;;;;5100326;28;20836;-52
2021/04/01 08:00:16;;;;;;;15.90;9.30;;;31.60;35.30;;;;;;5123731;28;20459;-54
2021/04/01 08:05:35;;;;;;;11.57;9.30;;;31.20;34.10;;;;;;5119177;27;20445;-53
2021/04/01 08:08:09;;;;;;;15.70;10.20;;;30.90;34.50;;;;;;5096625;28;20432;-53
2021/04/01 08:10:42;;;;;;;12.10;9.10;;;30.60;34.80;;;;;;5102795;28;20440;-54
2021/04/01 08:13:15;;;;;;;16.13;9.57;;;31.50;33.90;;;;;;5101995;28;20437;-54
2021/04/01 08:15:51;;;;;;;13.87;9.33;;;32.40;33.20;;;;;;5099767;28;21008;-54
2021/04/01 08:18:24;;;;;;;13.13;11.00;;;33.20;31.80;;;;;;5096567;28;20468;-54
2021/04/01 08:20:58;;;;;;;12.73;9.93;;;33.40;31.20;;;;;;5095615;28;20825;-54
2021/04/01 08:23:31;;;;;;;10.10;9.03;;;32.90;31.30;;;;;;5099198;28;20440;-53
2021/04/01 08:36:25;;;;;;;14.77;9.30;;;29.00;36.20;;;;;;5113896;28;20444;-54
2021/04/01 08:38:52;;;;;;;10.50;9.17;;;28.90;37.10;;;;;;5096842;28;20251;-53
2021/04/01 08:41:22;;;;;;;11.43;9.57;;;29.50;36.10;;;;;;5103115;28;20537;-53
2021/04/01 08:44:17;;;;;;;9.33;8.47;;;30.30;35.60;;;;;;5099089;28;20432;-53
2021/04/01 08:47:31;;;;;;;12.17;9.00;;;31.20;34.60;;;;;;5106274;28;20444;-54
2021/04/01 08:50:27;;;;;;;12.97;9.27;;;31.70;33.40;;;;;;5098408;28;20465;-53
2021/04/01 08:53:17;;;;;;;10.53;9.20;;;30.50;34.50;;;;;;5098520;28;20445;-53
2021/04/01 08:56:24;;;;;;;14.77;9.23;;;29.20;36.50;;;;;;5102917;27;20453;-53
2021/04/01 08:59:12;;;;;;;10.60;9.53;;;28.40;37.80;;;;;;5106847;27;20546;-54
2021/04/01 09:01:42;;;;;;;11.50;8.80;;;28.00;38.80;;;;;;5108428;27;20481;-54
2021/04/01 09:04:08;;;;;;;11.90;9.10;;;28.30;39.10;;;;;;5111257;27;20426;-54
2021/04/01 09:06:38;;;;;;;11.97;8.80;;;28.10;39.20;;;;;;5101800;27;20455;-53
2021/04/01 09:09:08;;;;;;;14.47;12.97;;;28.40;38.80;;;;;;5111904;27;20467;-53
2021/04/01 09:12:00;;;;;;;10.80;9.70;;;28.50;38.60;;;;;;5098025;27;20434;-53
2021/04/01 09:14:31;;;;;;;10.93;8.60;;;27.50;39.30;;;;;;5115334;27;20439;-55
2021/04/01 09:17:06;;;;;;;12.73;8.63;;;27.30;40.30;;;;;;5123243;27;21028;-55
2021/04/01 09:19:33;;;;;;;11.57;8.60;;;27.50;40.80;;;;;;5098653;27;20462;-55
2021/04/01 09:21:59;;;;;;;13.17;8.37;;;27.40;40.70;;;;;;5097271;27;20448;-55
2021/04/01 09:24:33;;;;;;;12.77;11.10;;;26.70;41.70;;;;;;5107520;27;20452;-55
2021/04/01 09:27:00;;;;;;;12.93;8.47;;;27.00;41.20;;;;;;5105934;27;20445;-55
2021/04/01 09:29:39;;;;;;;12.70;7.47;;;26.80;40.90;;;;;;5106686;27;20453;-55
2021/04/01 09:32:05;;;;;;;10.57;7.90;;;26.40;41.70;;;;;;5097769;27;20560;-55
2021/04/01 09:34:32;;;;;;;9.00;6.90;;;26.10;42.20;;;;;;5104206;27;20436;-54
2021/04/01 09:37:13;;;;;;;15.83;8.07;;;26.20;42.60;;;;;;5095956;27;20469;-54
2021/04/01 09:39:39;;;;;;;9.50;6.50;;;26.40;42.00;;;;;;5100499;27;20464;-54
2021/04/01 09:42:14;;;;;;;8.83;6.70;;;26.30;41.90;;;;;;5119510;27;20621;-54
2021/04/01 09:44:54;;;;;;;8.63;6.53;;;26.40;41.90;;;;;;5099222;27;20459;-55
2021/04/01 09:47:53;;;;;;;7.93;6.67;;;26.60;41.60;;;;;;5115021;27;20429;-54
2021/04/01 09:50:20;;;;;;;8.77;7.07;;;26.70;41.50;;;;;;5100147;27;20445;-55
2021/04/01 09:52:56;;;;;;;9.10;6.47;;;26.90;41.90;;;;;;5102834;27;20486;-55
2021/04/01 09:55:22;;;;;;;9.50;6.33;;;27.30;40.90;;;;;;5098402;27;20420;-54
2021/04/01 09:57:51;;;;;;;10.70;7.63;;;27.80;40.20;;;;;;5098026;27;20483;-55
2021/04/01 10:00:48;;;;;;;11.27;7.73;;;28.40;39.50;;;;;;5101179;27;20434;-55
2021/04/01 10:03:23;;;;;;;10.53;7.30;;;28.70;38.70;;;;;;5103974;27;20439;-55
2021/04/01 10:05:51;;;;;;;15.13;7.00;;;29.20;38.20;;;;;;5105498;27;20478;-54
2021/04/01 10:08:24;;;;;;;9.33;6.60;;;29.30;38.20;;;;;;5098837;27;20487;-54
2021/04/01 10:10:52;;;;;;;8.13;7.33;;;28.60;38.10;;;;;;5096570;27;20484;-55
2021/04/01 10:13:22;;;;;;;7.80;6.60;;;27.90;39.80;;;;;;5100656;27;20847;-55
2021/04/01 10:15:49;;;;;;;10.20;7.60;;;28.60;39.20;;;;;;5098645;27;20444;-55
2021/04/01 10:18:18;;;;;;;9.60;7.10;;;29.10;38.70;;;;;;5103985;27;20468;-55
2021/04/01 10:20:56;;;;;;;8.60;6.57;;;29.20;38.20;;;;;;5100121;27;20472;-56
2021/04/01 10:23:22;;;;;;;11.80;6.70;;;28.80;38.60;;;;;;5123410;27;20438;-56
2021/04/01 10:25:55;;;;;;;7.77;6.63;;;28.10;39.20;;;;;;5118927;27;20428;-53
2021/04/01 10:31:19;;;;;;;9.87;6.97;;;28.40;39.30;;;;;;5120761;27;20798;-53
2021/04/01 10:34:08;;;;;;;9.50;6.37;;;28.00;39.70;;;;;;5098713;27;20611;-56
2021/04/01 10:36:42;;;;;;;12.13;5.60;;;28.10;39.60;;;;;;5099387;27;20488;-55
2021/04/01 10:39:09;;;;;;;7.90;6.07;;;27.90;39.50;;;;;;5102847;27;21019;-56
2021/04/01 10:41:53;;;;;;;8.57;5.67;;;27.80;40.20;;;;;;5098308;27;20503;-56
2021/04/01 10:44:20;;;;;;;8.10;5.60;;;27.80;40.20;;;;;;5114181;27;20435;-54
2021/04/01 10:46:50;;;;;;;9.20;5.83;;;27.90;39.90;;;;;;5103178;27;20522;-55
2021/04/01 10:49:26;;;;;;;6.10;5.60;;;27.20;40.10;;;;;;5102788;27;20522;-55
2021/04/01 10:51:57;;;;;;;5.67;5.17;;;28.10;40.00;;;;;;5098542;27;20438;-55
2021/04/01 10:54:38;;;;;;;7.07;4.70;;;28.70;38.80;;;;;;5093804;27;20444;-53
2021/04/01 10:57:06;;;;;;;6.70;5.90;;;29.50;37.50;;;;;;5105564;27;20443;-54
2021/04/01 10:59:35;;;;;;;10.30;5.23;;;29.20;36.90;;;;;;5098840;27;20454;-54
2021/04/01 11:02:03;;;;;;;6.03;4.73;;;28.20;37.90;;;;;;5097924;27;20456;-53
2021/04/01 11:04:32;;;;;;;4.93;4.27;;;27.90;38.90;;;;;;5096672;27;21209;-54
2021/04/01 11:07:03;;;;;;;8.60;5.13;;;28.40;38.80;;;;;;5099834;27;20808;-54
2021/04/01 11:09:31;;;;;;;7.37;4.30;;;28.20;38.70;;;;;;5099289;27;20582;-55
2021/04/01 11:12:17;;;;;;;4.30;3.90;;;28.10;39.20;;;;;;5104143;27;20502;-55
2021/04/01 11:14:48;;;;;;;6.20;4.80;;;28.40;38.60;;;;;;5095501;27;20450;-54
2021/04/01 11:17:17;;;;;;;3.87;3.57;;;28.20;39.00;;;;;;5098169;27;20498;-55
2021/04/01 11:19:45;;;;;;;8.10;5.07;;;28.40;38.50;;;;;;5097108;28;20557;-55
2021/04/01 11:22:10;;;;;;;9.70;7.83;;;28.30;38.60;;;;;;5102056;27;20520;-54
2021/04/01 11:24:38;;;;;;;4.97;4.37;;;28.00;38.90;;;;;;5095963;27;21064;-54
2021/04/01 11:27:17;;;;;;;7.47;3.97;;;28.00;39.50;;;;;;5092959;27;20182;-54
2021/04/01 11:29:54;;;;;;;4.47;4.07;;;27.90;39.20;;;;;;5097919;28;20476;-54
2021/04/01 11:32:22;;;;;;;5.60;3.77;;;27.90;39.10;;;;;;5105593;27;20972;-54
2021/04/01 11:34:51;;;;;;;5.53;4.20;;;27.30;39.50;;;;;;5100924;27;20428;-55
2021/04/01 11:37:22;;;;;;;4.20;3.90;;;28.00;39.40;;;;;;5099278;27;20527;-54
2021/04/01 11:39:50;;;;;;;5.07;4.57;;;28.20;39.30;;;;;;5101732;28;20469;-54
2021/04/01 11:42:17;;;;;;;4.83;3.80;;;28.00;39.40;;;;;;5094176;28;20440;-55
2021/04/01 11:44:44;;;;;;;7.17;3.90;;;27.90;39.30;;;;;;5098724;28;20515;-54
2021/04/01 11:47:21;;;;;;;5.70;4.00;;;27.80;39.60;;;;;;5101768;28;20436;-54
2021/04/01 11:49:48;;;;;;;5.13;4.10;;;27.90;39.70;;;;;;5104409;28;21014;-54
2021/04/01 11:52:19;;;;;;;5.87;4.33;;;28.10;39.50;;;;;;5094461;28;20487;-53
2021/04/01 11:54:46;;;;;;;8.27;4.00;;;28.30;39.50;;;;;;5097715;28;20485;-54
2021/04/01 11:57:32;;;;;;;6.07;4.20;;;28.50;39.30;;;;;;5101952;28;20436;-55
2021/04/01 12:00:06;;;;;;;3.90;3.27;;;29.00;38.10;;;;;;5102502;28;20470;-54
2021/04/01 12:02:45;;;;;;;4.40;3.90;;;28.70;37.90;;;;;;5119135;27;20521;-54
2021/04/01 12:05:11;;;;;;;4.70;3.40;;;28.80;38.50;;;;;;5101710;28;20503;-54
2021/04/01 12:07:37;;;;;;;5.00;3.50;;;28.70;37.80;;;;;;5101022;28;20449;-54
2021/04/01 12:10:03;;;;;;;4.43;3.50;;;28.50;38.60;;;;;;5103134;28;20483;-54
2021/04/01 12:12:31;;;;;;;3.97;3.67;;;28.30;38.50;;;;;;5098598;28;20219;-54
2021/04/01 12:14:57;;;;;;;5.30;3.70;;;28.20;38.80;;;;;;5121497;27;20490;-54
2021/04/01 12:17:31;;;;;;;4.50;3.00;;;28.30;39.20;;;;;;5119060;28;21127;-54
2021/04/01 12:19:59;;;;;;;4.83;3.73;;;28.20;38.10;;;;;;5099026;28;20464;-54
2021/04/01 12:22:35;;;;;;;5.53;3.83;;;28.20;38.80;;;;;;5102846;28;20947;-53
2021/04/01 12:25:02;;;;;;;6.57;3.70;;;27.90;39.40;;;;;;5121468;27;20624;-54
2021/04/01 12:27:31;;;;;;;4.53;3.73;;;27.80;39.20;;;;;;5096123;28;20440;-54
2021/04/01 12:29:58;;;;;;;4.50;4.10;;;27.50;39.70;;;;;;5095320;27;20961;-53
2021/04/01 12:32:29;;;;;;;9.00;4.30;;;27.50;39.90;;;;;;5105047;27;20471;-53
2021/04/01 12:35:11;;;;;;;9.03;4.20;;;27.20;40.00;;;;;;5101102;27;20440;-54
2021/04/01 12:37:38;;;;;;;6.13;3.43;;;27.30;40.20;;;;;;5104848;27;20699;-54
2021/04/01 12:40:14;;;;;;;10.27;6.37;;;27.20;40.60;;;;;;5126200;27;20467;-54
2021/04/01 12:42:40;;;;;;;6.10;3.90;;;27.40;40.40;;;;;;5106047;27;20799;-53
2021/04/01 12:45:27;;;;;;;7.50;3.60;;;27.10;40.30;;;;;;5104685;27;20478;-54
2021/04/01 12:48:17;;;;;;;4.70;3.83;;;27.20;40.50;;;;;;5105362;27;20206;-54
2021/04/01 12:50:46;;;;;;;5.00;4.50;;;27.30;40.50;;;;;;5106727;27;20458;-53
2021/04/01 12:53:14;;;;;;;6.30;5.17;;;27.40;40.20;;;;;;5102451;27;20442;-54
2021/04/01 12:55:47;;;;;;;4.97;4.30;;;27.00;40.20;;;;;;5105511;27;20436;-54
2021/04/01 12:58:23;;;;;;;4.97;3.60;;;27.00;40.10;;;;;;5105184;27;20471;-54
2021/04/01 13:00:53;;;;;;;8.60;3.40;;;27.00;39.80;;;;;;5109661;27;20444;-55
2021/04/01 13:03:19;;;;;;;5.93;3.63;;;27.20;40.20;;;;;;5105801;27;20435;-53
2021/04/01 13:05:50;;;;;;;3.90;3.30;;;27.10;39.50;;;;;;5109167;27;20447;-54
2021/04/01 13:10:45;;;;;;;5.43;3.87;;;27.40;38.80;;;;;;5124447;27;20554;-54
2021/04/01 13:13:11;;;;;;;4.30;3.23;;;27.40;38.30;;;;;;5107593;27;20433;-54
2021/04/01 13:15:38;;;;;;;6.10;3.33;;;27.50;38.30;;;;;;5107295;27;20470;-54
2021/04/01 13:18:06;;;;;;;3.70;3.13;;;27.60;37.90;;;;;;5106935;27;20463;-54
2021/04/01 13:20:32;;;;;;;5.30;3.83;;;27.50;37.70;;;;;;5106141;27;20481;-54
2021/04/01 13:25:27;;;;;;;6.07;3.80;;;27.60;36.90;;;;;;5124048;27;20528;-54
2021/04/01 13:27:53;;;;;;;5.00;4.60;;;27.50;36.70;;;;;;5128937;27;21018;-54
2021/04/01 13:30:21;;;;;;;6.00;3.90;;;27.00;37.70;;;;;;5100360;27;20464;-54
2021/04/01 13:40:16;;;;;;;6.20;4.30;;;26.70;39.90;;;;;;5121058;27;20472;-54
2021/04/01 13:42:49;;;;;;;5.63;4.20;;;26.20;40.40;;;;;;5110269;27;20622;-53
2021/04/01 13:45:19;;;;;;;4.30;3.87;;;26.10;41.20;;;;;;5098630;27;20441;-54
2021/04/01 13:47:51;;;;;;;6.20;4.00;;;26.20;40.90;;;;;;5106907;27;20459;-54
2021/04/01 13:50:20;;;;;;;4.50;3.67;;;26.30;41.00;;;;;;5101417;27;20471;-54
2021/04/01 13:58:19;;;;;;;5.67;3.37;;;26.10;39.70;;;;;;5131032;27;21057;-54
2021/04/01 14:11:39;;;;;;;7.10;3.47;;;25.80;40.50;;;;;;5117644;27;20975;-55
2021/04/01 14:14:06;;;;;;;6.40;3.57;;;25.90;40.60;;;;;;5104281;27;20517;-54
2021/04/01 14:16:33;;;;;;;5.60;4.73;;;26.00;40.60;;;;;;5108900;28;20436;-54
2021/04/01 14:19:00;;;;;;;5.93;3.90;;;25.90;40.70;;;;;;5095885;27;20880;-52
2021/04/01 14:21:26;;;;;;;5.20;4.20;;;26.00;40.70;;;;;;5100945;27;20832;-53
2021/04/01 14:23:52;;;;;;;4.97;4.47;;;25.90;41.00;;;;;;5101252;28;20443;-53
2021/04/01 14:26:29;;;;;;;8.20;5.60;;;25.80;40.90;;;;;;5114821;27;20356;-53
2021/04/01 14:28:55;;;;;;;7.93;4.80;;;25.60;40.80;;;;;;5111042;27;20461;-53
2021/04/01 14:31:21;;;;;;;7.03;4.93;;;25.50;40.90;;;;;;5107218;27;20942;-54
2021/04/01 14:33:48;;;;;;;7.53;4.90;;;25.40;41.50;;;;;;5101078;27;20193;-54
2021/04/01 14:36:16;;;;;;;7.57;4.70;;;25.40;41.70;;;;;;5110950;28;20189;-53
2021/04/01 14:38:43;;;;;;;13.93;5.77;;;25.50;41.20;;;;;;5108415;27;20464;-53
2021/04/01 14:46:19;;;;;;;8.47;4.83;;;24.50;42.60;;;;;;5122857;27;20443;-53
2021/04/01 14:48:45;;;;;;;5.73;4.47;;;24.80;42.50;;;;;;5106513;27;20472;-53
2021/04/01 14:51:12;;;;;;;8.07;5.20;;;25.00;41.70;;;;;;5103798;28;20194;-53
2021/04/01 14:56:11;;;;;;;6.20;5.60;;;24.80;39.70;;;;;;5129231;27;20436;-52
2021/04/01 14:58:38;;;;;;;7.20;5.20;;;24.80;40.60;;;;;;5105357;27;20465;-52
2021/04/01 15:01:06;;;;;;;6.20;5.00;;;24.80;40.50;;;;;;5108885;27;20791;-53
2021/04/01 15:03:35;;;;;;;4.90;4.40;;;24.70;40.40;;;;;;5117124;27;20476;-53
2021/04/01 15:06:01;;;;;;;10.47;4.93;;;24.70;40.10;;;;;;5099406;27;20448;-53
2021/04/01 15:08:30;;;;;;;5.20;4.70;;;24.70;40.20;;;;;;5103933;27;20477;-53
2021/04/01 15:10:56;;;;;;;5.33;4.10;;;24.50;40.10;;;;;;5096386;28;20186;-53
2021/04/01 15:13:22;;;;;;;9.40;4.63;;;24.20;40.60;;;;;;5118788;27;20448;-53
2021/04/01 15:15:49;;;;;;;8.67;4.97;;;24.40;41.20;;;;;;5099670;28;20464;-54
2021/04/01 15:18:15;;;;;;;11.50;4.60;;;24.50;40.80;;;;;;5108017;27;20199;-53